createdAt,value
2018-03-17T00:01:14.933Z,8.20
2018-03-17T00:03:42.716Z,9.87
2018-03-17T00:06:11.353Z,8.57
2018-03-17T00:08:39.103Z,9.00
2018-03-17T00:11:06.956Z,8.47
2018-03-17T00:13:34.705Z,7.50
2018-03-17T00:16:02.555Z,8.15
2018-03-17T00:18:30.305Z,8.13
2018-03-17T00:20:58.054Z,7.50
2018-03-17T00:23:25.915Z,8.03
2018-03-17T00:25:53.764Z,9.20
2018-03-17T00:28:21.612Z,8.07
2018-03-17T00:30:49.362Z,8.93
2018-03-17T00:33:17.216Z,8.20
2018-03-17T00:35:45.066Z,8.38
2018-03-17T00:38:12.814Z,8.47
2018-03-17T00:40:40.666Z,8.70
2018-03-17T00:43:08.519Z,8.63
2018-03-17T00:45:36.369Z,8.60
2018-03-17T00:48:04.122Z,8.07
2018-03-17T00:50:31.971Z,8.02
2018-03-17T00:52:59.719Z,7.50
2018-03-17T00:55:27.571Z,8.27
2018-03-17T00:57:55.525Z,8.83
2018-03-17T01:00:23.380Z,8.80
2018-03-17T01:02:51.131Z,9.10
2018-03-17T01:05:18.885Z,8.40
2018-03-17T01:07:46.731Z,8.57
2018-03-17T01:10:14.482Z,8.60
2018-03-17T01:12:42.331Z,8.82
2018-03-17T01:15:10.079Z,8.43
2018-03-17T01:17:37.936Z,8.23
2018-03-17T01:20:05.783Z,8.05
2018-03-17T01:22:33.636Z,8.80
2018-03-17T01:25:01.487Z,8.65
2018-03-17T01:27:29.338Z,8.65
2018-03-17T01:29:57.087Z,8.90
2018-03-17T01:32:25.050Z,8.20
2018-03-17T01:34:52.901Z,8.47
2018-03-17T01:37:20.748Z,8.60
2018-03-17T01:39:48.497Z,8.27
2018-03-17T01:42:16.351Z,8.18
2018-03-17T01:44:44.202Z,8.40
2018-03-17T01:47:12.053Z,8.77
2018-03-17T01:49:39.803Z,8.73
2018-03-17T01:52:07.657Z,8.07
2018-03-17T01:54:35.504Z,8.63
2018-03-17T01:57:03.356Z,7.95
2018-03-17T01:59:31.106Z,10.00
2018-03-17T02:01:58.856Z,8.27
2018-03-17T02:04:26.707Z,8.20
2018-03-17T02:06:54.459Z,8.13
2018-03-17T02:09:22.311Z,8.30
2018-03-17T02:11:50.164Z,8.27
2018-03-17T02:14:18.014Z,7.93
2018-03-17T02:16:45.763Z,7.60
2018-03-17T02:19:13.622Z,7.15
2018-03-17T02:21:41.466Z,7.05
2018-03-17T02:24:09.216Z,6.55
2018-03-17T02:26:36.965Z,7.87
2018-03-17T02:29:04.759Z,6.72
2018-03-17T02:31:32.568Z,6.60
2018-03-17T02:34:00.287Z,6.55
2018-03-17T02:36:28.066Z,6.10
2018-03-17T02:38:55.919Z,6.30
2018-03-17T02:41:23.670Z,5.70
2018-03-17T02:43:51.520Z,6.05
2018-03-17T02:46:19.280Z,5.80
2018-03-17T02:48:47.941Z,6.22
2018-03-17T02:51:15.792Z,5.90
2018-03-17T02:53:43.646Z,5.40
2018-03-17T02:56:11.497Z,5.35
2018-03-17T02:58:39.249Z,5.80
2018-03-17T03:01:07.097Z,6.57
2018-03-17T03:03:34.864Z,9.40
2018-03-17T03:06:03.527Z,9.85
2018-03-17T03:08:32.025Z,10.50
2018-03-17T03:10:59.840Z,7.45
2018-03-17T03:13:27.585Z,5.85
2018-03-17T03:15:55.332Z,5.20
2018-03-17T03:18:23.188Z,5.78
2018-03-17T03:20:51.141Z,4.65
2018-03-17T03:23:18.891Z,4.45
2018-03-17T03:25:46.744Z,6.00
2018-03-17T03:28:14.594Z,4.85
2018-03-17T03:30:42.345Z,5.45
2018-03-17T03:33:10.136Z,4.70
2018-03-17T03:35:38.048Z,4.97
2018-03-17T03:38:05.796Z,4.60
2018-03-17T03:40:33.548Z,4.32
2018-03-17T03:43:01.396Z,5.07
2018-03-17T03:45:29.248Z,4.60
2018-03-17T03:47:57.102Z,5.80
2018-03-17T03:50:25.059Z,5.60
2018-03-17T03:52:52.911Z,5.70
2018-03-17T03:55:20.761Z,6.45
2018-03-17T03:57:48.510Z,5.68
2018-03-17T04:00:16.266Z,5.50
2018-03-17T04:02:44.122Z,5.80
2018-03-17T04:05:12.786Z,5.57
2018-03-17T04:07:40.532Z,6.25
2018-03-17T04:10:08.281Z,5.43
2018-03-17T04:12:36.131Z,5.63
2018-03-17T04:15:03.983Z,5.93
2018-03-17T04:17:31.732Z,5.57
2018-03-17T04:19:59.583Z,5.70
2018-03-17T04:22:27.436Z,6.03
2018-03-17T04:24:55.227Z,6.15
2018-03-17T04:27:23.041Z,6.45
2018-03-17T04:29:50.827Z,6.60
2018-03-17T04:32:18.641Z,6.45
2018-03-17T04:34:46.390Z,6.55
2018-03-17T04:37:14.138Z,6.07
2018-03-17T04:39:41.990Z,6.37
2018-03-17T04:42:09.843Z,6.45
2018-03-17T04:44:37.594Z,5.72
2018-03-17T04:47:05.443Z,5.93
2018-03-17T04:49:33.295Z,6.30
2018-03-17T04:52:01.044Z,6.45
2018-03-17T04:54:28.896Z,6.80
2018-03-17T04:56:56.580Z,6.05
2018-03-17T04:59:24.397Z,6.65
2018-03-17T05:01:52.258Z,7.78
2018-03-17T05:04:20.819Z,6.10
2018-03-17T05:06:48.674Z,7.43
2018-03-17T05:09:16.520Z,7.57
2018-03-17T05:11:44.276Z,8.25
2018-03-17T05:14:12.121Z,7.25
2018-03-17T05:16:39.874Z,7.22
2018-03-17T05:19:07.724Z,8.57
2018-03-17T05:21:35.480Z,8.73
2018-03-17T05:24:03.325Z,8.77
2018-03-17T05:26:31.176Z,10.43
2018-03-17T05:28:59.026Z,9.88
2018-03-17T05:31:26.878Z,9.55
2018-03-17T05:33:54.733Z,10.57
2018-03-17T05:36:22.586Z,10.35
2018-03-17T05:38:50.540Z,11.15
2018-03-17T05:41:18.393Z,10.45
2018-03-17T05:43:46.242Z,10.63
2018-03-17T05:46:14.094Z,9.80
2018-03-17T05:48:41.945Z,11.00
2018-03-17T05:51:09.695Z,11.30
2018-03-17T05:53:37.443Z,11.67
2018-03-17T05:56:05.297Z,11.38
2018-03-17T05:58:33.147Z,12.00
2018-03-17T06:01:00.998Z,12.57
2018-03-17T06:03:29.567Z,12.52
2018-03-17T06:05:57.418Z,12.40
2018-03-17T06:08:25.280Z,12.97
2018-03-17T06:10:53.126Z,12.88
2018-03-17T06:13:20.863Z,13.33
2018-03-17T06:15:48.730Z,12.27
2018-03-17T06:18:16.516Z,11.93
2018-03-17T06:20:44.327Z,12.07
2018-03-17T06:23:12.115Z,11.77
2018-03-17T06:25:40.645Z,13.97
2018-03-17T06:28:08.496Z,12.80
2018-03-17T06:30:37.076Z,13.90
2018-03-17T06:33:05.634Z,14.05
2018-03-17T06:35:33.485Z,12.90
2018-03-17T06:38:01.340Z,13.97
2018-03-17T06:40:29.189Z,13.70
2018-03-17T06:42:57.245Z,12.95
2018-03-17T06:45:25.200Z,14.40
2018-03-17T06:47:53.054Z,14.33
2018-03-17T06:50:21.042Z,15.70
2018-03-17T06:52:48.862Z,14.60
2018-03-17T06:55:16.666Z,14.60
2018-03-17T06:57:44.462Z,14.45
2018-03-17T07:00:12.313Z,15.37
2018-03-17T07:02:40.039Z,15.20
2018-03-17T07:05:07.719Z,15.93
2018-03-17T07:07:35.559Z,16.00
2018-03-17T07:10:03.414Z,16.53
2018-03-17T07:12:31.263Z,17.12
2018-03-17T07:14:59.119Z,16.90
2018-03-17T07:17:26.966Z,17.00
2018-03-17T07:19:54.822Z,17.15
2018-03-17T07:22:22.680Z,17.77
2018-03-17T07:24:50.524Z,17.00
2018-03-17T07:27:18.377Z,16.23
2018-03-17T07:29:46.242Z,16.83
2018-03-17T07:32:14.899Z,16.48
2018-03-17T07:34:42.648Z,16.03
2018-03-17T07:37:10.499Z,16.97
2018-03-17T07:39:38.353Z,16.70
2018-03-17T07:42:06.203Z,17.05
2018-03-17T07:44:34.056Z,14.80
2018-03-17T07:47:01.908Z,16.25
2018-03-17T07:49:29.758Z,15.90
2018-03-17T07:51:57.610Z,15.63
2018-03-17T07:54:25.483Z,15.85
2018-03-17T07:56:54.040Z,16.35
2018-03-17T07:59:21.884Z,15.95
2018-03-17T08:01:49.638Z,18.45
2018-03-17T08:04:17.485Z,17.03
2018-03-17T08:06:45.235Z,17.10
2018-03-17T08:09:13.086Z,15.30
2018-03-17T08:11:40.944Z,14.50
2018-03-17T08:14:08.790Z,16.77
2018-03-17T08:16:36.641Z,16.40
2018-03-17T08:19:04.391Z,16.70
2018-03-17T08:21:32.242Z,16.43
2018-03-17T08:24:00.094Z,16.00
2018-03-17T08:26:27.945Z,15.80
2018-03-17T08:28:55.900Z,15.23
2018-03-17T08:31:23.652Z,15.00
2018-03-17T08:33:51.504Z,15.07
2018-03-17T08:36:19.356Z,15.15
2018-03-17T08:38:47.105Z,14.63
2018-03-17T08:41:14.959Z,15.35
2018-03-17T08:43:42.706Z,17.67
2018-03-17T08:46:10.557Z,16.20
2018-03-17T08:48:38.409Z,15.87
2018-03-17T08:51:06.261Z,17.23
2018-03-17T08:53:33.949Z,16.00
2018-03-17T08:56:01.767Z,16.30
2018-03-17T08:58:29.612Z,17.00
2018-03-17T09:00:57.463Z,16.50
2018-03-17T09:03:25.432Z,14.20
2018-03-17T09:05:53.255Z,15.73
2018-03-17T09:08:21.124Z,16.63
2018-03-17T09:10:49.098Z,15.67
2018-03-17T09:13:17.033Z,16.83
2018-03-17T09:15:44.885Z,14.98
2018-03-17T09:18:12.737Z,14.07
2018-03-17T09:20:40.845Z,16.83
2018-03-17T09:23:08.644Z,16.30
2018-03-17T09:25:36.497Z,15.77
2018-03-17T09:28:04.259Z,16.73
2018-03-17T09:30:32.040Z,15.60
2018-03-17T09:32:59.742Z,16.20
2018-03-17T09:35:27.802Z,17.75
2018-03-17T09:37:55.654Z,16.10
2018-03-17T09:40:23.403Z,16.50
2018-03-17T09:42:51.168Z,16.23
2018-03-17T09:45:19.109Z,16.40
2018-03-17T09:47:47.079Z,16.25
2018-03-17T09:50:16.473Z,16.50
2018-03-17T09:52:45.224Z,17.65
2018-03-17T09:55:13.072Z,16.42
2018-03-17T09:57:40.821Z,17.40
2018-03-17T10:00:08.748Z,15.73
2018-03-17T10:02:36.525Z,18.33
2018-03-17T10:05:04.236Z,18.00
2018-03-17T10:07:31.994Z,19.42
2018-03-17T10:09:59.876Z,18.70
2018-03-17T10:12:27.727Z,18.43
2018-03-17T10:14:55.582Z,16.77
2018-03-17T10:17:23.435Z,18.00
2018-03-17T10:19:51.286Z,18.27
2018-03-17T10:22:19.841Z,17.00
2018-03-17T10:24:47.729Z,17.67
2018-03-17T10:27:16.487Z,12.70
2018-03-17T10:29:44.330Z,18.37
2018-03-17T10:32:12.182Z,16.33
2018-03-17T10:34:39.934Z,17.90
2018-03-17T10:37:07.789Z,17.63
2018-03-17T10:39:35.636Z,18.17
2018-03-17T10:42:03.489Z,16.73
2018-03-17T10:44:31.239Z,18.33
2018-03-17T10:46:59.092Z,18.40
2018-03-17T10:49:26.939Z,19.20
2018-03-17T10:51:54.691Z,19.03
2018-03-17T10:54:22.544Z,18.17
2018-03-17T10:56:50.395Z,18.80
2018-03-17T10:59:18.246Z,18.10
2018-03-17T11:01:46.099Z,19.98
2018-03-17T11:04:13.952Z,19.13
2018-03-17T11:06:41.804Z,20.40
2018-03-17T11:09:09.653Z,13.57
2018-03-17T11:11:37.524Z,17.92
2018-03-17T11:14:05.359Z,17.30
2018-03-17T11:16:33.209Z,16.77
2018-03-17T11:19:01.059Z,19.60
2018-03-17T11:21:28.808Z,19.87
2018-03-17T11:23:56.661Z,19.37
2018-03-17T11:26:24.515Z,19.80
2018-03-17T11:28:52.268Z,18.43
2018-03-17T11:31:20.222Z,19.77
2018-03-17T11:33:48.091Z,18.50
2018-03-17T11:36:16.638Z,19.30
2018-03-17T11:38:44.492Z,20.20
2018-03-17T11:41:12.348Z,18.20
2018-03-17T11:43:40.193Z,19.17
2018-03-17T11:46:08.046Z,16.10
2018-03-17T11:48:35.914Z,18.10
2018-03-17T11:51:04.465Z,15.77
2018-03-17T11:53:32.324Z,16.53
2018-03-17T11:56:00.171Z,18.70
2018-03-17T11:58:27.920Z,14.50
2018-03-17T12:00:55.770Z,15.20
2018-03-17T12:03:23.522Z,14.70
2018-03-17T12:05:51.376Z,16.63
2018-03-17T12:08:19.229Z,16.47
2018-03-17T12:10:47.076Z,18.47
2018-03-17T12:13:14.929Z,18.70
2018-03-17T12:15:42.682Z,17.93
2018-03-17T12:18:10.530Z,18.07
2018-03-17T12:20:38.381Z,19.40
2018-03-17T12:23:06.110Z,18.50
2018-03-17T12:25:33.791Z,18.93
2018-03-17T12:28:01.630Z,18.23
2018-03-17T12:30:29.481Z,18.23
2018-03-17T12:32:57.333Z,18.07
2018-03-17T12:35:25.086Z,19.70
2018-03-17T12:37:52.834Z,20.93
2018-03-17T12:40:21.710Z,19.17
2018-03-17T12:42:48.434Z,20.17
2018-03-17T12:45:16.286Z,20.77
2018-03-17T12:47:44.035Z,20.30
2018-03-17T12:50:11.887Z,19.13
2018-03-17T12:52:39.739Z,19.40
2018-03-17T12:55:07.488Z,18.87
2018-03-17T12:57:35.340Z,21.13
2018-03-17T13:00:03.102Z,19.47
2018-03-17T13:02:30.838Z,20.00
2018-03-17T13:04:58.693Z,19.27
2018-03-17T13:07:26.543Z,18.80
2018-03-17T13:09:54.297Z,19.63
2018-03-17T13:12:22.148Z,20.20
2018-03-17T13:14:50.033Z,21.15
2018-03-17T13:17:18.566Z,19.23
2018-03-17T13:19:46.417Z,20.77
2018-03-17T13:22:14.092Z,19.00
2018-03-17T13:24:42.632Z,18.50
2018-03-17T13:27:22.474Z,16.67
2018-03-17T13:29:50.317Z,18.92
2018-03-17T13:32:30.146Z,19.73
2018-03-17T13:34:58.040Z,18.23
2018-03-17T13:37:37.732Z,17.87
2018-03-17T13:40:17.458Z,17.80
2018-03-17T13:42:45.309Z,19.83
2018-03-17T13:45:13.061Z,18.37
2018-03-17T13:47:40.809Z,17.47
2018-03-17T13:50:08.659Z,17.63
2018-03-17T13:52:36.511Z,19.00
2018-03-17T13:55:04.214Z,17.40
2018-03-17T13:57:31.933Z,19.60
2018-03-17T14:00:00.579Z,19.73
2018-03-17T14:02:28.268Z,18.57
2018-03-17T14:04:55.943Z,13.47
2018-03-17T14:07:23.727Z,13.73
2018-03-17T14:09:51.479Z,13.40
2018-03-17T14:12:19.328Z,18.20
2018-03-17T14:14:47.077Z,16.87
2018-03-17T14:17:14.868Z,17.17
2018-03-17T14:19:42.677Z,14.10
2018-03-17T14:22:10.529Z,14.27
2018-03-17T14:24:38.384Z,18.90
2018-03-17T14:27:06.233Z,16.53
2018-03-17T14:29:34.084Z,15.67
2018-03-17T14:32:01.833Z,13.97
2018-03-17T14:34:29.685Z,17.60
2018-03-17T14:36:59.278Z,17.47
2018-03-17T14:39:27.028Z,18.00
2018-03-17T14:41:54.894Z,17.90
2018-03-17T14:44:22.734Z,17.63
2018-03-17T14:46:50.590Z,11.77
2018-03-17T14:49:18.438Z,13.30
2018-03-17T14:51:46.288Z,16.97
2018-03-17T14:54:14.275Z,16.53
2018-03-17T14:56:42.756Z,15.73
2018-03-17T14:59:10.570Z,16.10
2018-03-17T15:01:38.416Z,12.80
2018-03-17T15:04:06.264Z,14.23
2018-03-17T15:06:34.013Z,16.03
2018-03-17T15:09:01.870Z,18.23
2018-03-17T15:11:29.717Z,16.53
2018-03-17T15:13:57.571Z,12.17
2018-03-17T15:16:25.626Z,15.00
2018-03-17T15:18:53.379Z,15.43
2018-03-17T15:21:21.256Z,15.30
2018-03-17T15:23:49.797Z,16.48
2018-03-17T15:26:17.854Z,12.17
2018-03-17T15:28:45.705Z,15.23
2018-03-17T15:31:13.558Z,15.93
2018-03-17T15:33:41.236Z,14.60
2018-03-17T15:36:09.063Z,15.60
2018-03-17T15:38:36.906Z,13.00
2018-03-17T15:41:04.758Z,12.60
2018-03-17T15:43:32.609Z,15.47
2018-03-17T15:46:00.360Z,14.40
2018-03-17T15:48:28.109Z,15.67
2018-03-17T15:50:55.962Z,13.50
2018-03-17T15:53:23.814Z,13.47
2018-03-17T15:55:51.668Z,14.87
2018-03-17T15:58:19.518Z,14.90
2018-03-17T16:00:47.370Z,16.20
2018-03-17T16:03:15.120Z,15.57
2018-03-17T16:05:42.908Z,15.67
2018-03-17T16:08:11.438Z,15.50
2018-03-17T16:10:39.289Z,16.33
2018-03-17T16:13:07.140Z,19.00
2018-03-17T16:15:34.992Z,17.05
2018-03-17T16:18:02.741Z,19.10
2018-03-17T16:20:30.593Z,16.65
2018-03-17T16:22:58.444Z,15.60
2018-03-17T16:25:26.398Z,17.50
2018-03-17T16:27:54.255Z,17.27
2018-03-17T16:30:22.105Z,15.10
2018-03-17T16:32:49.957Z,16.12
2018-03-17T16:35:17.808Z,15.32
2018-03-17T16:37:45.660Z,15.73
2018-03-17T16:40:13.514Z,16.20
2018-03-17T16:42:41.363Z,16.60
2018-03-17T16:45:09.219Z,16.17
2018-03-17T16:47:37.004Z,13.60
2018-03-17T16:50:04.818Z,14.85
2018-03-17T16:52:32.669Z,14.32
2018-03-17T16:55:01.221Z,13.95
2018-03-17T16:57:28.904Z,15.27
2018-03-17T16:59:57.451Z,16.67
2018-03-17T17:02:25.204Z,14.17
2018-03-17T17:04:52.962Z,15.53
2018-03-17T17:07:20.700Z,16.85
2018-03-17T17:09:48.497Z,16.27
2018-03-17T17:12:16.305Z,15.23
2018-03-17T17:14:44.155Z,15.18
2018-03-17T17:17:12.940Z,15.80
2018-03-17T17:19:41.405Z,15.55
2018-03-17T17:22:09.246Z,14.68
2018-03-17T17:24:37.099Z,15.23
2018-03-17T17:27:04.949Z,14.68
2018-03-17T17:29:32.806Z,15.20
2018-03-17T17:32:00.652Z,14.52
2018-03-17T17:34:28.504Z,16.23
2018-03-17T17:36:56.254Z,16.33
2018-03-17T17:39:24.109Z,14.48
2018-03-17T17:41:51.963Z,14.95
2018-03-17T17:44:19.814Z,15.35
2018-03-17T17:46:47.508Z,15.93
2018-03-17T17:49:15.208Z,15.13
2018-03-17T17:51:43.059Z,16.13
2018-03-17T17:54:10.910Z,14.02
2018-03-17T17:56:38.763Z,13.98
2018-03-17T17:59:06.622Z,14.35
2018-03-17T18:01:34.512Z,12.93
2018-03-17T18:04:02.317Z,13.57
2018-03-17T18:06:30.032Z,15.02
2018-03-17T18:08:58.124Z,13.75
2018-03-17T18:11:25.975Z,14.38
2018-03-17T18:13:53.793Z,14.80
2018-03-17T18:16:21.579Z,14.80
2018-03-17T18:18:49.430Z,14.70
2018-03-17T18:21:17.181Z,14.43
2018-03-17T18:23:45.032Z,15.55
2018-03-17T18:26:12.785Z,14.90
2018-03-17T18:28:40.734Z,15.73
2018-03-17T18:31:08.485Z,14.45
2018-03-17T18:33:36.221Z,15.27
2018-03-17T18:36:04.086Z,15.87
2018-03-17T18:38:31.937Z,16.10
2018-03-17T18:40:59.628Z,15.90
2018-03-17T18:43:27.540Z,16.30
2018-03-17T18:45:55.327Z,16.25
2018-03-17T18:48:26.011Z,17.25
2018-03-17T18:50:53.861Z,16.50
2018-03-17T18:53:21.611Z,16.45
2018-03-17T18:55:49.503Z,17.08
2018-03-17T18:58:17.417Z,16.05
2018-03-17T19:00:45.277Z,16.23
2018-03-17T19:03:12.962Z,17.17
2018-03-17T19:05:40.693Z,17.23
2018-03-17T19:08:09.234Z,16.73
2018-03-17T19:10:36.916Z,17.02
2018-03-17T19:13:05.449Z,16.35
2018-03-17T19:15:33.197Z,16.20
2018-03-17T19:18:00.929Z,17.58
2018-03-17T19:20:28.798Z,17.27
2018-03-17T19:22:56.548Z,16.73
2018-03-17T19:25:24.401Z,16.75
2018-03-17T19:27:52.257Z,17.75
2018-03-17T19:30:20.111Z,17.12
2018-03-17T19:32:47.958Z,17.90
2018-03-17T19:35:15.820Z,18.25
2018-03-17T19:37:43.508Z,16.92
2018-03-17T19:40:11.229Z,16.60
2018-03-17T19:42:39.679Z,17.65
2018-03-17T19:45:07.401Z,17.20
2018-03-17T19:47:35.178Z,16.15
2018-03-17T19:50:03.840Z,17.70
2018-03-17T19:52:31.590Z,17.30
2018-03-17T19:54:59.441Z,15.40
2018-03-17T19:57:27.190Z,16.23
2018-03-17T19:59:55.046Z,17.42
2018-03-17T20:02:22.897Z,17.70
2018-03-17T20:04:50.755Z,18.00
2018-03-17T20:07:18.498Z,17.12
2018-03-17T20:09:46.451Z,17.10
2018-03-17T20:12:14.303Z,16.37
2018-03-17T20:14:42.155Z,16.87
2018-03-17T20:17:10.012Z,16.08
2018-03-17T20:19:37.708Z,17.35
2018-03-17T20:22:05.505Z,14.25
2018-03-17T20:24:33.356Z,16.48
2018-03-17T20:27:01.208Z,16.65
2018-03-17T20:29:29.060Z,17.17
2018-03-17T20:31:56.911Z,16.27
2018-03-17T20:34:24.664Z,16.42
2018-03-17T20:36:52.515Z,16.37
2018-03-17T20:39:20.264Z,17.48
2018-03-17T20:41:48.116Z,15.90
2018-03-17T20:44:15.836Z,15.73
2018-03-17T20:46:43.761Z,16.75
2018-03-17T20:49:11.569Z,18.20
2018-03-17T20:51:39.303Z,16.50
2018-03-17T20:54:06.985Z,16.65
2018-03-17T20:56:35.533Z,16.80
2018-03-17T20:59:03.385Z,15.45
2018-03-17T21:01:31.237Z,14.87
2018-03-17T21:03:59.088Z,15.88
2018-03-17T21:06:26.938Z,16.30
2018-03-17T21:08:54.795Z,16.55
2018-03-17T21:11:22.646Z,14.32
2018-03-17T21:13:50.501Z,16.20
2018-03-17T21:16:18.312Z,13.80
2018-03-17T21:18:46.102Z,15.93
2018-03-17T21:21:13.954Z,15.30
2018-03-17T21:23:41.648Z,15.82
2018-03-17T21:26:09.368Z,15.40
2018-03-17T21:28:37.812Z,15.15
2018-03-17T21:31:05.491Z,17.25
2018-03-17T21:33:33.975Z,15.70
2018-03-17T21:36:01.777Z,15.50
2018-03-17T21:38:29.633Z,14.50
2018-03-17T21:40:57.491Z,16.40
2018-03-17T21:43:25.979Z,16.55
2018-03-17T21:45:54.473Z,14.65
2018-03-17T21:48:22.267Z,13.75
2018-03-17T21:50:49.957Z,15.25
2018-03-17T21:53:17.765Z,13.93
2018-03-17T21:55:45.515Z,13.85
2018-03-17T21:58:13.366Z,15.02
2018-03-17T22:00:41.257Z,15.32
2018-03-17T22:03:09.069Z,15.05
2018-03-17T22:05:36.925Z,14.32
2018-03-17T22:08:04.672Z,15.20
2018-03-17T22:10:32.522Z,16.52
2018-03-17T22:13:00.373Z,14.32
2018-03-17T22:15:28.226Z,13.60
2018-03-17T22:17:55.895Z,13.90
2018-03-17T22:20:24.488Z,13.63
2018-03-17T22:22:52.296Z,12.93
2018-03-17T22:25:20.147Z,13.83
2018-03-17T22:27:48.001Z,14.05
2018-03-17T22:30:15.732Z,15.27
2018-03-17T22:32:43.412Z,14.67
2018-03-17T22:35:11.246Z,14.70
2018-03-17T22:37:38.960Z,14.07
2018-03-17T22:40:06.750Z,12.75
2018-03-17T22:42:34.596Z,13.40
2018-03-17T22:45:02.346Z,12.47
2018-03-17T22:47:30.095Z,12.90
2018-03-17T22:49:57.846Z,11.90
2018-03-17T22:52:25.699Z,12.70
2018-03-17T22:54:53.551Z,13.10
2018-03-17T22:57:21.305Z,13.97
2018-03-17T22:59:49.150Z,12.50
2018-03-17T23:02:17.003Z,15.37
2018-03-17T23:04:44.855Z,10.47
2018-03-17T23:07:12.604Z,11.73
2018-03-17T23:09:40.492Z,11.83
2018-03-17T23:12:08.308Z,11.87
2018-03-17T23:14:36.057Z,11.70
2018-03-17T23:17:03.908Z,10.60
2018-03-17T23:19:31.668Z,12.20
2018-03-17T23:21:59.510Z,12.93
2018-03-17T23:24:27.360Z,11.10
2018-03-17T23:26:55.218Z,11.20
2018-03-17T23:29:23.068Z,12.07
2018-03-17T23:31:50.919Z,9.07
2018-03-17T23:34:18.776Z,10.80
2018-03-17T23:36:46.623Z,9.33
2018-03-17T23:39:14.474Z,10.20
2018-03-17T23:41:42.327Z,9.37
2018-03-17T23:44:10.178Z,8.70
2018-03-17T23:46:38.036Z,9.00
2018-03-17T23:49:05.881Z,10.87
2018-03-17T23:51:33.633Z,11.70
2018-03-17T23:54:01.481Z,9.00
2018-03-17T23:56:29.332Z,9.07
2018-03-17T23:58:57.184Z,10.07
